Terminal Aerodrome Forecast
Issued by NWS

Home | Current Version | Previous Version | Text Only | Print | Product List | Glossary Off
Versions: 1 2 3 4 5 6 7 8 9 10 11 12 13 14 15

000
FTUS41 KCLE 230741 AAA
TAFFDY
TAF AMD
KFDY 230741Z 2308/2406 20010KT P6SM VCSH BKN015 OVC025
      TEMPO 2308/2311 -SHRA OVC008
     FM231100 22012KT P6SM -SHRA VCTS BKN015CB OVC025
      TEMPO 2312/2316 5SM -TSRA OVC008CB
     FM231800 24012KT 4SM -SHRA BKN010 OVC025
     FM232000 29008KT P6SM BKN025 OVC045=

USA.gov is the U.S. government's official web portal to all federal, state and local government web resources and services.